Share

Bay, AR (72411)

Jonesboro Municipal (KJBR) Elev 262 ft | 35.83 °N, 90.65 °W | Change Station

Current weather conditions updated 46 minutes ago

Overcast
Overcast
66 °F
Feels Like 66 °F
N
4
Wind Variable Wind from WSW
Sunrise 6:21 AM
Sunset 7:40 PM
Moon Waning Gibbous

Today is forecast to be Cooler than yesterday. Scattered thunderstorms possible.

Pressure 30.06 in
Visibility 10.0 miles
Clouds Overcast 7500 ft
Dew Point 53 °F
Humidity 63%
Rainfall 0.00 in
Snow Depth Not available.
UV 2 out of 16
Pollen 7.80 out of 12
Air Quality Not available.
Flu Activity Sporadic
METAR KJBR 211453Z AUTO 25003KT 10SM OVC075 19/12 A3006 RMK AO2 SLP177 T01890117 50003

More Conditions Fewer Conditions

Pressure 30.06 in
Visibility 10.0 miles
Clouds Overcast 7500 ft
Dew Point 53 °F
Humidity 63%
Rainfall 0.00 in
Snow Depth Not available.
UV 2 out of 16
Pollen 7.80 out of 12
Air Quality Not available.
Flu Activity Sporadic
METAR KJBR 211453Z AUTO 25003KT 10SM OVC075 19/12 A3006 RMK AO2 SLP177 T01890117 50003

More Conditions Fewer Conditions

10-Day Weather Forecast

Almanac

Astronomy

Apr. 21, 2014 Rise Set
Actual Time 6:21 AM CDT 7:40 PM CDT
Civil Twilight 5:55 AM CDT 8:07 PM CDT
Nautical Twilight 5:23 AM CDT 8:39 PM CDT
Astronomical Twilight 4:50 AM CDT 9:12 PM CDT
Moon 1:07 AM CDT 11:51 AM CDT
Length of Visible Light 14h 12m
Length of Day
13h 18m
Tomorrow will be 2m 5s longer.
Waning Gibbous, 58% of the Moon is Illuminated
Today
Waning Gibbous
Apr 22
Last Quarter
Apr 29
New
May 6
First Quarter
May 14
Full

Today's Extremes

State Highs State Lows

Community

  • Bright Eyes
    Bright Eyes
  • Snowy Robin
    Snowy Robin
  • Spring Crocus
    Spring Crocus
  • Sun Pillar and Geese
    Sun Pillar and Geese
  • Showers on the Way
    Showers on the Way

WunderPhotos

Upload Photos

1,703,665 photos uploaded!

Nearby

Snow Depth

Station Depth Elevation
No new snow has been reported.

Coastal Water Temperatures

Place Temperature
No Stations Reporting

Earthquake Activity

City Distance Mag. Time & Date
No recent earthquake activity has been reported nearby.
Minimum magnitude displayed is 2.5.

Nearby Weather Stations

Station Location Temp. Dew Point Humidity Wind Precip. Elev Updated Type
MesoWest HARRIS , Harrisburg, AR 65 °F - - North  at  - 0.00 in / hr 250 ft 7:15 AM CDT MADIS
RAWS POINSETT AR, Harrisburg, AR 65 °F 50 °F 58% West  at  4 mph 0.00 in / hr 389 ft 9:10 AM CDT MADIS
MesoWest OTWELL , Weiner, AR 64 °F - - North  at  - 0.00 in / hr 250 ft 9:05 AM CDT MADIS
Boward and Wofford, Waldenburg, AR 63.2 °F 60 °F 88% South  at  4.0 mph 0.00 in / hr 243 ft 10:28 AM CDT Normal

Show More Stations Show Fewer Stations

What do you think?

We're not finished. Please let us know what you like, what you don't like, and what you are still missing.